createdAt,value
2022-11-22T00:00:03.609Z,40.0
2022-11-22T00:05:01.111Z,37.8
2022-11-22T00:10:01.134Z,37.4
2022-11-22T00:15:01.592Z,36.9
2022-11-22T00:25:01.167Z,34.9
2022-11-22T00:30:01.706Z,36.0
2022-11-22T00:35:01.128Z,34.1
2022-11-22T00:40:01.105Z,36.0
2022-11-22T00:45:01.570Z,36.8
2022-11-22T00:50:01.137Z,37.1
2022-11-22T00:55:01.110Z,39.7
2022-11-22T01:00:02.263Z,42.0
2022-11-22T01:05:01.125Z,40.9
2022-11-22T01:10:01.580Z,39.0
2022-11-22T01:15:01.946Z,39.1
2022-11-22T01:20:01.114Z,38.4
2022-11-22T01:25:01.116Z,38.7
2022-11-22T01:30:03.022Z,38.1
2022-11-22T01:35:01.231Z,43.5
2022-11-22T01:40:03.487Z,43.4
2022-11-22T01:45:16.488Z,41.6
2022-11-22T01:50:01.017Z,41.5
2022-11-22T01:55:00.973Z,42.6
2022-11-22T02:00:04.597Z,38.1
2022-11-22T02:05:00.996Z,37.4
2022-11-22T02:10:00.867Z,39.1
2022-11-22T02:15:02.594Z,39.1
2022-11-22T02:20:00.526Z,38.3
2022-11-22T02:25:00.966Z,40.8
2022-11-22T02:30:01.774Z,38.6
2022-11-22T02:35:00.707Z,38.7
2022-11-22T02:40:01.659Z,35.5
2022-11-22T02:45:01.702Z,35.0
2022-11-22T02:50:01.193Z,33.7
2022-11-22T02:55:01.178Z,36.4
2022-11-22T03:00:01.715Z,35.2
2022-11-22T03:05:01.235Z,38.1
2022-11-22T03:10:01.728Z,39.8
2022-11-22T03:15:01.635Z,39.9
2022-11-22T03:25:01.234Z,40.4
2022-11-22T03:30:02.522Z,36.0
2022-11-22T03:35:01.187Z,36.1
2022-11-22T03:40:01.241Z,35.8
2022-11-22T03:45:02.271Z,35.8
2022-11-22T03:50:01.211Z,37.6
2022-11-22T03:55:01.218Z,41.2
2022-11-22T04:00:02.505Z,41.8
2022-11-22T04:05:01.212Z,40.0
2022-11-22T04:10:01.182Z,40.9
2022-11-22T04:15:01.720Z,40.4
2022-11-22T04:20:02.068Z,39.4
2022-11-22T04:25:01.201Z,39.2
2022-11-22T04:30:01.635Z,41.9
2022-11-22T04:35:01.216Z,42.7
2022-11-22T04:40:01.224Z,44.2
2022-11-22T04:45:03.308Z,50.9
2022-11-22T04:50:01.206Z,53.3
2022-11-22T04:55:01.201Z,55.3
2022-11-22T05:00:02.725Z,55.4
2022-11-22T05:05:01.202Z,54.9
2022-11-22T05:10:01.192Z,51.0
2022-11-22T05:15:02.729Z,48.4
2022-11-22T05:20:01.178Z,45.4
2022-11-22T05:25:01.358Z,43.6
2022-11-22T05:30:01.723Z,43.1
2022-11-22T05:35:01.216Z,44.0
2022-11-22T05:40:01.190Z,46.4
2022-11-22T05:45:01.729Z,49.0
2022-11-22T05:50:01.196Z,52.0
2022-11-22T05:55:01.232Z,51.5
2022-11-22T06:00:02.344Z,49.6
2022-11-22T06:05:01.229Z,46.6
2022-11-22T06:10:01.628Z,41.9
2022-11-22T06:15:01.803Z,40.1
2022-11-22T06:20:05.643Z,41.2
2022-11-22T06:25:01.220Z,43.8
2022-11-22T06:30:01.722Z,43.6
2022-11-22T06:35:01.194Z,49.0
2022-11-22T06:40:01.195Z,51.0
2022-11-22T06:45:01.709Z,51.6
2022-11-22T06:50:01.204Z,51.4
2022-11-22T06:55:01.743Z,51.2
2022-11-22T07:00:02.491Z,49.5
2022-11-22T07:05:26.575Z,47.1
2022-11-22T07:10:01.196Z,45.6
2022-11-22T07:15:01.753Z,44.4
2022-11-22T07:20:01.210Z,43.2
2022-11-22T07:25:01.387Z,43.4
2022-11-22T07:30:01.654Z,45.6
2022-11-22T07:35:01.698Z,45.3
2022-11-22T07:40:01.284Z,46.3
2022-11-22T07:45:01.950Z,47.5
2022-11-22T07:50:01.209Z,46.9
2022-11-22T07:55:01.300Z,46.0
2022-11-22T08:00:02.544Z,47.0
2022-11-22T08:05:01.329Z,42.9
2022-11-22T08:10:01.239Z,44.0
2022-11-22T08:15:01.825Z,44.2
2022-11-22T08:20:01.247Z,43.0
2022-11-22T08:25:01.366Z,41.2
2022-11-22T08:30:01.870Z,43.6
2022-11-22T08:35:01.697Z,43.0
2022-11-22T08:40:02.387Z,43.3
2022-11-22T08:45:01.934Z,42.4
2022-11-22T08:50:01.215Z,41.2
2022-11-22T08:55:01.219Z,42.4
2022-11-22T09:00:03.432Z,44.8
2022-11-22T09:05:01.922Z,45.2
2022-11-22T09:25:03.551Z,42.8
2022-11-22T09:30:01.909Z,42.0
2022-11-22T09:35:01.524Z,42.3
2022-11-22T09:45:15.262Z,42.7
2022-11-22T09:50:01.415Z,41.7
2022-11-22T09:55:01.417Z,40.4
2022-11-22T10:00:04.413Z,39.0
2022-11-22T10:05:01.554Z,38.2
2022-11-22T10:10:01.330Z,37.1
2022-11-22T10:15:07.243Z,36.7
2022-11-22T10:20:01.421Z,36.2
2022-11-22T10:25:01.532Z,36.3
2022-11-22T10:30:03.799Z,37.6
2022-11-22T10:35:17.569Z,36.7
2022-11-22T10:40:16.927Z,37.5
2022-11-22T10:45:13.641Z,39.6
2022-11-22T10:50:01.441Z,39.3
2022-11-22T10:55:01.421Z,38.0
2022-11-22T11:00:17.527Z,38.6
2022-11-22T11:05:01.454Z,37.3
2022-11-22T11:10:26.217Z,35.0
2022-11-22T11:15:04.447Z,33.9
2022-11-22T11:20:01.538Z,31.8
2022-11-22T11:25:01.780Z,30.3
2022-11-22T11:30:02.966Z,28.4
2022-11-22T11:35:01.454Z,27.2
2022-11-22T11:40:01.548Z,28.2
2022-11-22T11:45:16.841Z,28.2
2022-11-22T11:50:01.418Z,28.6
2022-11-22T11:55:01.359Z,30.1
2022-11-22T12:00:04.526Z,32.2
2022-11-22T12:10:01.435Z,34.0
2022-11-22T12:15:19.710Z,35.2
2022-11-22T12:20:01.460Z,36.2
2022-11-22T12:25:32.393Z,38.1
2022-11-22T12:30:02.084Z,40.8
2022-11-22T12:35:01.543Z,44.4
2022-11-22T12:40:01.452Z,46.8
2022-11-22T12:45:05.276Z,51.1
2022-11-22T12:50:01.429Z,52.4
2022-11-22T12:55:01.546Z,53.4
2022-11-22T13:00:06.042Z,50.9
2022-11-22T13:05:01.426Z,49.8
2022-11-22T13:10:01.429Z,48.4
2022-11-22T13:15:02.786Z,46.8
2022-11-22T13:20:01.569Z,45.0
2022-11-22T13:25:01.956Z,45.8
2022-11-22T13:30:03.191Z,45.3
2022-11-22T13:35:01.560Z,44.8
2022-11-22T13:40:01.453Z,44.9
2022-11-22T13:45:06.503Z,45.8
2022-11-22T13:50:01.434Z,45.6
2022-11-22T13:55:01.641Z,45.9
2022-11-22T14:00:17.134Z,45.2
2022-11-22T14:05:01.438Z,44.2
2022-11-22T14:10:01.490Z,41.4
2022-11-22T14:15:17.655Z,42.5
2022-11-22T14:20:01.466Z,42.4
2022-11-22T14:25:01.385Z,40.6
2022-11-22T14:30:16.420Z,40.8
2022-11-22T14:35:17.427Z,42.1
2022-11-22T14:40:01.443Z,40.4
2022-11-22T14:45:03.870Z,40.6
2022-11-22T14:50:01.437Z,41.3
2022-11-22T14:55:01.572Z,41.8
2022-11-22T15:00:14.381Z,42.8
2022-11-22T15:09:08.344Z,42.7
2022-11-22T15:10:01.954Z,42.6
2022-11-22T16:15:18.101Z,53.2
2022-11-22T16:25:00.958Z,52.9
2022-11-22T16:30:01.933Z,53.7
2022-11-22T16:35:21.974Z,53.6
2022-11-22T16:40:01.597Z,53.7
2022-11-22T16:45:12.413Z,53.6
2022-11-22T16:50:01.216Z,50.2
2022-11-22T16:55:01.349Z,49.9
2022-11-22T17:00:03.271Z,50.6
2022-11-22T17:10:02.415Z,51.8
2022-11-22T17:15:02.155Z,56.2
2022-11-22T17:20:01.521Z,56.5
2022-11-22T17:25:01.537Z,56.3
2022-11-22T17:30:02.546Z,55.9
2022-11-22T17:35:01.663Z,54.4
2022-11-22T17:40:01.532Z,55.5
2022-11-22T17:45:02.558Z,56.9
2022-11-22T17:50:01.511Z,57.8
2022-11-22T17:55:05.185Z,58.9
2022-11-22T18:00:03.774Z,60.6
2022-11-22T18:05:01.504Z,60.5
2022-11-22T18:10:01.573Z,58.9
2022-11-22T18:15:03.449Z,58.4
2022-11-22T18:20:01.528Z,57.9
2022-11-22T18:25:01.529Z,56.5
2022-11-22T18:45:02.943Z,54.8
2022-11-22T18:50:01.734Z,55.2
2022-11-22T18:55:06.681Z,54.7
2022-11-22T19:00:02.585Z,55.8
2022-11-22T19:11:03.067Z,56.0
2022-11-22T19:16:01.516Z,55.8
2022-11-22T19:26:01.548Z,55.4
2022-11-22T19:31:01.653Z,54.5
2022-11-22T19:36:01.956Z,54.1
2022-11-22T19:41:01.442Z,54.4
2022-11-22T19:46:01.525Z,53.4
2022-11-22T19:51:01.679Z,52.7
2022-11-22T19:56:01.517Z,51.4
2022-11-22T20:01:01.547Z,50.6
2022-11-22T20:06:01.576Z,48.6
2022-11-22T20:11:01.646Z,46.2
2022-11-22T20:16:01.423Z,46.6
2022-11-22T20:21:01.523Z,47.0
2022-11-22T20:26:01.507Z,46.6
2022-11-22T20:31:01.640Z,48.2
2022-11-22T20:36:01.620Z,51.2
2022-11-22T20:41:01.512Z,50.4
2022-11-22T20:46:01.510Z,51.4
2022-11-22T20:51:01.650Z,52.0
2022-11-22T20:56:01.523Z,50.5
2022-11-22T21:01:01.524Z,49.4
2022-11-22T21:06:01.659Z,49.6
2022-11-22T21:11:01.686Z,48.9
2022-11-22T21:16:01.509Z,47.4
2022-11-22T21:21:01.525Z,48.9
2022-11-22T21:26:01.514Z,50.8
2022-11-22T21:31:01.630Z,52.6
2022-11-22T21:36:01.601Z,53.8
2022-11-22T21:41:17.093Z,54.2
2022-11-22T21:46:01.510Z,54.6
2022-11-22T21:51:02.401Z,53.3
2022-11-22T21:56:01.545Z,51.8
2022-11-22T22:01:01.833Z,53.0
2022-11-22T22:06:01.620Z,53.9
2022-11-22T22:11:01.709Z,53.3
2022-11-22T22:16:01.506Z,53.2
2022-11-22T22:21:01.592Z,53.1
2022-11-22T22:26:01.508Z,50.5
2022-11-22T22:31:01.648Z,50.1
2022-11-22T22:36:01.571Z,49.8
2022-11-22T22:41:01.572Z,51.1
2022-11-22T22:46:05.991Z,50.5
2022-11-22T22:51:01.836Z,50.1
2022-11-22T22:56:01.496Z,51.0
2022-11-22T23:01:01.309Z,51.4
2022-11-22T23:06:01.625Z,50.7
2022-11-22T23:11:01.734Z,52.3
2022-11-22T23:16:01.653Z,53.6
2022-11-22T23:21:01.632Z,52.5
2022-11-22T23:26:01.503Z,51.1
2022-11-22T23:31:01.620Z,50.7
2022-11-22T23:36:01.582Z,46.3
2022-11-22T23:41:01.452Z,46.7
2022-11-22T23:46:02.268Z,47.3
2022-11-22T23:51:01.565Z,48.7
2022-11-22T23:56:01.427Z,47.9
